LTAE Airport Information

Runway Information
Runway 03 Length 10991 ft width 148 ft
Elevation 2729 ft Threshold 0 ft Heading 33
Runway 21 Length 10991 ft Width 148 ft
Elevation 2767 ft Threshold 0 ft Heading 213
Airport Frequencies
Type APP Name ESENBOGA A Frequency 119.1 MHZ
Type ATIS Name ATIS Frequency 264.15 MHZ
Type TWR Name TWR Frequency 122.1 MHZ
Airport Navaids
Type TACAN Name Akinci Frequency 114500 KHZ
Airport Weather Information & NOTAM
ADDS - METARS form results

(1030 UTC 21 May 2019)
Data provider http://aviationweather.gov/metar/data/
 
Forecast for: LTAE (MURTED (TUR-AFB), TR)
Text: TAF LTAE 210740Z 2109/2118 24012KT 9999 SCT040 BKN100
Forecast period: 0900 to 1800 UTC 21 May 2019
Forecast type: FROM: standard forecast or significant change
Winds: from the WSW (240 degrees) at 14 MPH (12 knots; 6.2 m/s)
Visibility: 6 or more miles 10+ km)
Ceiling: 10000 feet AGL
Clouds: scattered clouds at 4000 feet AGL
broken clouds at 10000 feet AGL
Weather: no significant weather forecast for this period